sensor_id;sensor_type;location;lat;lon;timestamp;noise_LAeq;noise_LA_min;noise_LA_max;noise_LA01;noise_LA95
64393;Laerm;50712;49.506;10.400;2023-08-01T00:00:14;52.93;49.24;59.80;;
64393;Laerm;50712;49.506;10.400;2023-08-01T00:00:47;53.00;49.58;59.67;;
64393;Laerm;50712;49.506;10.400;2023-08-01T00:01:18;55.44;51.21;59.57;;
64393;Laerm;50712;49.506;10.400;2023-08-01T00:01:48;56.10;52.78;60.06;;
64393;Laerm;50712;49.506;10.400;2023-08-01T00:02:18;57.24;53.78;61.72;;
64393;Laerm;50712;49.506;10.400;2023-08-01T00:02:49;57.00;50.41;68.26;;
64393;Laerm;50712;49.506;10.400;2023-08-01T00:03:19;54.42;50.39;57.54;;
64393;Laerm;50712;49.506;10.400;2023-08-01T00:03:49;53.43;50.16;62.84;;
64393;Laerm;50712;49.506;10.400;2023-08-01T00:04:20;54.04;50.69;62.05;;
64393;Laerm;50712;49.506;10.400;2023-08-01T00:04:50;54.10;50.36;60.53;;
64393;Laerm;50712;49.506;10.400;2023-08-01T00:05:20;55.23;51.44;60.27;;
64393;Laerm;50712;49.506;10.400;2023-08-01T00:05:51;54.45;51.03;61.92;;
64393;Laerm;50712;49.506;10.400;2023-08-01T00:06:21;55.44;50.03;59.93;;
64393;Laerm;50712;49.506;10.400;2023-08-01T00:06:52;53.68;50.26;61.64;;
64393;Laerm;50712;49.506;10.400;2023-08-01T00:07:22;54.63;50.88;61.86;;
64393;Laerm;50712;49.506;10.400;2023-08-01T00:07:53;55.46;51.59;61.74;;
64393;Laerm;50712;49.506;10.400;2023-08-01T00:08:23;56.25;52.22;63.33;;
64393;Laerm;50712;49.506;10.400;2023-08-01T00:08:53;58.69;51.63;66.41;;
64393;Laerm;50712;49.506;10.400;2023-08-01T00:09:24;54.77;49.89;64.01;;
64393;Laerm;50712;49.506;10.400;2023-08-01T00:09:54;51.68;49.03;60.33;;
64393;Laerm;50712;49.506;10.400;2023-08-01T00:10:24;55.52;47.33;65.38;;
64393;Laerm;50712;49.506;10.400;2023-08-01T00:10:55;53.32;48.47;58.95;;
64393;Laerm;50712;49.506;10.400;2023-08-01T00:11:25;55.12;48.63;61.47;;
64393;Laerm;50712;49.506;10.400;2023-08-01T00:11:55;54.86;50.41;61.50;;
64393;Laerm;50712;49.506;10.400;2023-08-01T00:12:27;52.70;49.59;60.80;;
64393;Laerm;50712;49.506;10.400;2023-08-01T00:12:57;53.69;49.22;63.91;;
64393;Laerm;50712;49.506;10.400;2023-08-01T00:13:28;57.32;49.38;65.51;;
64393;Laerm;50712;49.506;10.400;2023-08-01T00:13:58;55.39;50.23;68.20;;
64393;Laerm;50712;49.506;10.400;2023-08-01T00:14:28;55.78;48.40;66.08;;
64393;Laerm;50712;49.506;10.400;2023-08-01T00:14:59;54.14;48.40;63.94;;
64393;Laerm;50712;49.506;10.400;2023-08-01T00:15:29;54.92;48.56;65.60;;
64393;Laerm;50712;49.506;10.400;2023-08-01T00:15:59;55.05;48.69;65.96;;
64393;Laerm;50712;49.506;10.400;2023-08-01T00:16:30;55.81;49.75;65.20;;
64393;Laerm;50712;49.506;10.400;2023-08-01T00:17:01;57.73;50.35;66.35;;
64393;Laerm;50712;49.506;10.400;2023-08-01T00:17:31;57.70;50.19;65.44;;
64393;Laerm;50712;49.506;10.400;2023-08-01T00:18:01;56.78;50.01;65.17;;
64393;Laerm;50712;49.506;10.400;2023-08-01T00:18:32;55.80;48.57;65.40;;
64393;Laerm;50712;49.506;10.400;2023-08-01T00:19:02;57.86;48.64;67.62;;
64393;Laerm;50712;49.506;10.400;2023-08-01T00:19:32;51.64;47.50;65.20;;
64393;Laerm;50712;49.506;10.400;2023-08-01T00:20:03;51.54;48.03;54.91;;
64393;Laerm;50712;49.506;10.400;2023-08-01T00:20:34;52.21;48.55;56.41;;
64393;Laerm;50712;49.506;10.400;2023-08-01T00:21:05;52.00;49.20;62.31;;
64393;Laerm;50712;49.506;10.400;2023-08-01T00:21:35;51.49;48.38;56.69;;
64393;Laerm;50712;49.506;10.400;2023-08-01T00:22:05;54.89;49.23;59.90;;
64393;Laerm;50712;49.506;10.400;2023-08-01T00:22:36;53.32;48.57;62.78;;
64393;Laerm;50712;49.506;10.400;2023-08-01T00:23:06;57.19;50.01;67.02;;
64393;Laerm;50712;49.506;10.400;2023-08-01T00:23:37;65.48;50.60;74.82;;
64393;Laerm;50712;49.506;10.400;2023-08-01T00:24:07;60.23;50.28;71.31;;
64393;Laerm;50712;49.506;10.400;2023-08-01T00:24:38;59.63;51.08;64.64;;
64393;Laerm;50712;49.506;10.400;2023-08-01T00:25:08;58.35;53.61;64.09;;
64393;Laerm;50712;49.506;10.400;2023-08-01T00:25:39;59.45;51.42;65.51;;
64393;Laerm;50712;49.506;10.400;2023-08-01T00:26:09;58.94;51.84;64.47;;
64393;Laerm;50712;49.506;10.400;2023-08-01T00:26:39;57.35;50.00;66.93;;
64393;Laerm;50712;49.506;10.400;2023-08-01T00:27:10;55.67;49.86;60.86;;
64393;Laerm;50712;49.506;10.400;2023-08-01T00:27:40;55.85;48.73;62.69;;
64393;Laerm;50712;49.506;10.400;2023-08-01T00:28:11;53.27;48.91;59.33;;
64393;Laerm;50712;49.506;10.400;2023-08-01T00:28:43;53.48;48.47;64.41;;
64393;Laerm;50712;49.506;10.400;2023-08-01T00:29:13;55.20;50.78;59.86;;
64393;Laerm;50712;49.506;10.400;2023-08-01T00:29:44;54.85;49.70;59.98;;
64393;Laerm;50712;49.506;10.400;2023-08-01T00:30:48;56.86;50.84;63.07;;
64393;Laerm;50712;49.506;10.400;2023-08-01T00:31:18;52.97;49.86;57.13;;
64393;Laerm;50712;49.506;10.400;2023-08-01T00:31:48;53.48;49.84;63.66;;
64393;Laerm;50712;49.506;10.400;2023-08-01T00:32:19;55.47;50.29;60.84;;
64393;Laerm;50712;49.506;10.400;2023-08-01T00:32:49;55.61;51.85;64.95;;
64393;Laerm;50712;49.506;10.400;2023-08-01T00:33:19;57.38;50.20;69.38;;
64393;Laerm;50712;49.506;10.400;2023-08-01T00:33:50;56.25;48.69;67.30;;
64393;Laerm;50712;49.506;10.400;2023-08-01T00:34:20;55.83;48.95;68.93;;
64393;Laerm;50712;49.506;10.400;2023-08-01T00:34:51;52.94;48.72;61.93;;
64393;Laerm;50712;49.506;10.400;2023-08-01T00:35:22;53.74;48.45;59.47;;
64393;Laerm;50712;49.506;10.400;2023-08-01T00:35:55;53.30;49.05;62.76;;
64393;Laerm;50712;49.506;10.400;2023-08-01T00:36:58;58.17;49.18;70.10;;
64393;Laerm;50712;49.506;10.400;2023-08-01T00:37:28;54.07;48.80;66.41;;
64393;Laerm;50712;49.506;10.400;2023-08-01T00:37:59;55.15;48.11;64.39;;
64393;Laerm;50712;49.506;10.400;2023-08-01T00:38:29;57.18;49.36;65.80;;
64393;Laerm;50712;49.506;10.400;2023-08-01T00:39:00;59.51;50.43;69.73;;
64393;Laerm;50712;49.506;10.400;2023-08-01T00:39:30;59.60;52.18;66.82;;
64393;Laerm;50712;49.506;10.400;2023-08-01T00:40:00;52.47;48.42;62.53;;
64393;Laerm;50712;49.506;10.400;2023-08-01T00:40:31;54.35;48.56;60.42;;
64393;Laerm;50712;49.506;10.400;2023-08-01T00:41:02;55.38;49.79;70.40;;
64393;Laerm;50712;49.506;10.400;2023-08-01T00:41:32;68.24;49.09;71.97;;
64393;Laerm;50712;49.506;10.400;2023-08-01T00:42:03;68.97;52.81;72.79;;
64393;Laerm;50712;49.506;10.400;2023-08-01T00:42:36;69.47;49.78;72.48;;
64393;Laerm;50712;49.506;10.400;2023-08-01T00:43:08;70.37;63.24;72.68;;
64393;Laerm;50712;49.506;10.400;2023-08-01T00:43:38;70.17;55.48;72.51;;
64393;Laerm;50712;49.506;10.400;2023-08-01T00:44:09;70.96;62.28;73.27;;
64393;Laerm;50712;49.506;10.400;2023-08-01T00:44:39;66.09;50.59;73.17;;
64393;Laerm;50712;49.506;10.400;2023-08-01T00:45:10;55.61;50.72;61.91;;
64393;Laerm;50712;49.506;10.400;2023-08-01T00:45:40;57.17;50.05;67.71;;
64393;Laerm;50712;49.506;10.400;2023-08-01T00:46:11;56.58;50.56;65.94;;
64393;Laerm;50712;49.506;10.400;2023-08-01T00:46:42;58.54;52.96;66.40;;
64393;Laerm;50712;49.506;10.400;2023-08-01T00:47:12;63.78;54.98;69.83;;
64393;Laerm;50712;49.506;10.400;2023-08-01T00:47:43;65.33;49.98;68.63;;
64393;Laerm;50712;49.506;10.400;2023-08-01T00:48:13;64.16;49.92;68.19;;
64393;Laerm;50712;49.506;10.400;2023-08-01T00:48:43;55.23;48.56;59.98;;
64393;Laerm;50712;49.506;10.400;2023-08-01T00:49:14;57.34;49.76;64.37;;
64393;Laerm;50712;49.506;10.400;2023-08-01T00:49:44;56.18;49.34;67.14;;
64393;Laerm;50712;49.506;10.400;2023-08-01T00:50:15;55.68;48.60;64.03;;
64393;Laerm;50712;49.506;10.400;2023-08-01T00:50:45;53.98;49.88;64.53;;
64393;Laerm;50712;49.506;10.400;2023-08-01T00:51:16;55.23;49.99;62.41;;
64393;Laerm;50712;49.506;10.400;2023-08-01T00:51:48;57.43;47.76;63.08;;
64393;Laerm;50712;49.506;10.400;2023-08-01T00:52:19;54.74;48.66;59.16;;
64393;Laerm;50712;49.506;10.400;2023-08-01T00:52:50;57.08;49.41;60.78;;
64393;Laerm;50712;49.506;10.400;2023-08-01T00:53:22;56.53;50.03;60.97;;
64393;Laerm;50712;49.506;10.400;2023-08-01T00:53:53;57.52;50.06;61.36;;
64393;Laerm;50712;49.506;10.400;2023-08-01T00:54:24;57.00;49.40;60.77;;
64393;Laerm;50712;49.506;10.400;2023-08-01T00:54:55;56.94;48.65;60.52;;
64393;Laerm;50712;49.506;10.400;2023-08-01T00:55:26;56.25;49.79;59.90;;
64393;Laerm;50712;49.506;10.400;2023-08-01T00:56:00;56.25;49.79;59.90;;
64393;Laerm;50712;49.506;10.400;2023-08-01T00:56:31;58.71;51.06;62.05;;
64393;Laerm;50712;49.506;10.400;2023-08-01T00:57:05;57.93;50.24;61.55;;
64393;Laerm;50712;49.506;10.400;2023-08-01T00:57:36;57.39;48.56;60.65;;
64393;Laerm;50712;49.506;10.400;2023-08-01T00:58:06;57.69;48.66;61.96;;
64393;Laerm;50712;49.506;10.400;2023-08-01T00:58:37;57.55;48.93;61.52;;
64393;Laerm;50712;49.506;10.400;2023-08-01T00:59:07;57.18;48.11;61.09;;
64393;Laerm;50712;49.506;10.400;2023-08-01T00:59:38;56.30;47.56;60.51;;
64393;Laerm;50712;49.506;10.400;2023-08-01T01:00:09;56.96;48.42;61.27;;
64393;Laerm;50712;49.506;10.400;2023-08-01T01:00:39;57.19;47.61;61.20;;
64393;Laerm;50712;49.506;10.400;2023-08-01T01:01:09;58.84;48.77;63.51;;
64393;Laerm;50712;49.506;10.400;2023-08-01T01:01:40;59.96;50.14;65.73;;
64393;Laerm;50712;49.506;10.400;2023-08-01T01:02:11;59.62;50.79;66.91;;
64393;Laerm;50712;49.506;10.400;2023-08-01T01:02:42;59.55;48.75;66.59;;
64393;Laerm;50712;49.506;10.400;2023-08-01T01:03:13;57.04;50.08;67.27;;
64393;Laerm;50712;49.506;10.400;2023-08-01T01:03:44;62.08;52.29;70.30;;
64393;Laerm;50712;49.506;10.400;2023-08-01T01:04:14;61.04;51.10;67.34;;
64393;Laerm;50712;49.506;10.400;2023-08-01T01:04:45;58.56;49.45;68.73;;
64393;Laerm;50712;49.506;10.400;2023-08-01T01:05:15;55.58;48.33;68.44;;
64393;Laerm;50712;49.506;10.400;2023-08-01T01:06:01;54.07;48.35;61.88;;
64393;Laerm;50712;49.506;10.400;2023-08-01T01:06:48;58.50;51.54;63.18;;
64393;Laerm;50712;49.506;10.400;2023-08-01T01:07:36;54.47;48.95;61.90;;
64393;Laerm;50712;49.506;10.400;2023-08-01T01:08:07;54.87;49.85;60.18;;
64393;Laerm;50712;49.506;10.400;2023-08-01T01:08:38;54.77;50.21;63.98;;
64393;Laerm;50712;49.506;10.400;2023-08-01T01:09:18;54.61;49.45;60.90;;
64393;Laerm;50712;49.506;10.400;2023-08-01T01:09:50;52.13;49.05;60.45;;
64393;Laerm;50712;49.506;10.400;2023-08-01T01:10:22;51.65;48.93;56.42;;
64393;Laerm;50712;49.506;10.400;2023-08-01T01:10:53;51.85;48.12;57.58;;
64393;Laerm;50712;49.506;10.400;2023-08-01T01:11:23;50.98;47.89;58.86;;
64393;Laerm;50712;49.506;10.400;2023-08-01T01:11:53;51.35;48.29;65.18;;
64393;Laerm;50712;49.506;10.400;2023-08-01T01:12:24;52.88;49.31;58.95;;
64393;Laerm;50712;49.506;10.400;2023-08-01T01:12:54;54.49;50.53;63.28;;
64393;Laerm;50712;49.506;10.400;2023-08-01T01:13:25;53.27;50.29;62.68;;
64393;Laerm;50712;49.506;10.400;2023-08-01T01:13:55;55.70;50.32;68.11;;
64393;Laerm;50712;49.506;10.400;2023-08-01T01:14:29;53.97;49.11;66.18;;
64393;Laerm;50712;49.506;10.400;2023-08-01T01:14:59;53.40;48.94;64.29;;
64393;Laerm;50712;49.506;10.400;2023-08-01T01:15:30;55.18;50.19;60.17;;
64393;Laerm;50712;49.506;10.400;2023-08-01T01:16:00;52.70;48.82;61.19;;
64393;Laerm;50712;49.506;10.400;2023-08-01T01:16:31;52.50;48.92;58.22;;
64393;Laerm;50712;49.506;10.400;2023-08-01T01:17:01;52.74;48.76;60.07;;
64393;Laerm;50712;49.506;10.400;2023-08-01T01:17:31;53.84;48.76;58.20;;
64393;Laerm;50712;49.506;10.400;2023-08-01T01:18:02;56.75;50.42;61.05;;
64393;Laerm;50712;49.506;10.400;2023-08-01T01:18:32;55.61;49.06;61.76;;
64393;Laerm;50712;49.506;10.400;2023-08-01T01:19:08;52.76;48.30;60.37;;
64393;Laerm;50712;49.506;10.400;2023-08-01T01:19:39;53.52;47.78;61.24;;
64393;Laerm;50712;49.506;10.400;2023-08-01T01:20:10;54.08;49.31;60.57;;
64393;Laerm;50712;49.506;10.400;2023-08-01T01:20:40;54.17;48.20;61.19;;
64393;Laerm;50712;49.506;10.400;2023-08-01T01:21:10;56.89;48.18;66.38;;
64393;Laerm;50712;49.506;10.400;2023-08-01T01:21:42;57.77;49.46;74.87;;
64393;Laerm;50712;49.506;10.400;2023-08-01T01:22:13;57.24;49.42;69.43;;
64393;Laerm;50712;49.506;10.400;2023-08-01T01:22:44;60.39;49.46;65.14;;
64393;Laerm;50712;49.506;10.400;2023-08-01T01:23:16;60.50;50.46;67.16;;
64393;Laerm;50712;49.506;10.400;2023-08-01T01:23:48;57.95;49.18;68.28;;
64393;Laerm;50712;49.506;10.400;2023-08-01T01:24:21;57.77;48.69;71.89;;
64393;Laerm;50712;49.506;10.400;2023-08-01T01:24:53;63.93;49.71;70.08;;
64393;Laerm;50712;49.506;10.400;2023-08-01T01:25:26;62.70;49.64;71.64;;
64393;Laerm;50712;49.506;10.400;2023-08-01T01:25:57;63.94;52.34;76.13;;
64393;Laerm;50712;49.506;10.400;2023-08-01T01:26:28;65.61;52.12;72.92;;
64393;Laerm;50712;49.506;10.400;2023-08-01T01:27:31;61.48;54.27;68.38;;
64393;Laerm;50712;49.506;10.400;2023-08-01T01:28:03;56.77;50.24;63.68;;
64393;Laerm;50712;49.506;10.400;2023-08-01T01:28:35;62.66;49.75;72.47;;
64393;Laerm;50712;49.506;10.400;2023-08-01T01:29:07;57.99;51.52;69.64;;
64393;Laerm;50712;49.506;10.400;2023-08-01T01:29:39;58.76;50.99;68.67;;
64393;Laerm;50712;49.506;10.400;2023-08-01T01:30:10;58.95;53.23;64.32;;
64393;Laerm;50712;49.506;10.400;2023-08-01T01:30:43;55.91;48.87;63.24;;
64393;Laerm;50712;49.506;10.400;2023-08-01T01:31:15;56.34;48.86;62.84;;
64393;Laerm;50712;49.506;10.400;2023-08-01T01:31:45;56.14;49.54;61.72;;
64393;Laerm;50712;49.506;10.400;2023-08-01T01:32:17;53.86;48.04;68.02;;
64393;Laerm;50712;49.506;10.400;2023-08-01T01:32:48;52.76;48.00;59.67;;
64393;Laerm;50712;49.506;10.400;2023-08-01T01:33:19;52.54;49.30;56.94;;
64393;Laerm;50712;49.506;10.400;2023-08-01T01:33:50;53.46;48.08;65.23;;
64393;Laerm;50712;49.506;10.400;2023-08-01T01:34:21;54.83;50.00;60.07;;
64393;Laerm;50712;49.506;10.400;2023-08-01T01:34:51;52.67;49.03;57.91;;
64393;Laerm;50712;49.506;10.400;2023-08-01T01:35:22;52.70;48.35;59.19;;
64393;Laerm;50712;49.506;10.400;2023-08-01T01:35:54;53.16;48.33;59.39;;
64393;Laerm;50712;49.506;10.400;2023-08-01T01:36:24;54.47;50.25;58.72;;
64393;Laerm;50712;49.506;10.400;2023-08-01T01:36:55;54.64;54.64;54.64;;
64393;Laerm;50712;49.506;10.400;2023-08-01T01:37:25;55.67;50.39;60.17;;
64393;Laerm;50712;49.506;10.400;2023-08-01T01:37:56;55.96;51.50;60.22;;
64393;Laerm;50712;49.506;10.400;2023-08-01T01:38:28;56.91;52.07;62.82;;
64393;Laerm;50712;49.506;10.400;2023-08-01T01:38:59;55.07;51.82;61.57;;
64393;Laerm;50712;49.506;10.400;2023-08-01T01:39:29;54.39;50.44;60.76;;
64393;Laerm;50712;49.506;10.400;2023-08-01T01:39:59;55.01;50.12;62.40;;
64393;Laerm;50712;49.506;10.400;2023-08-01T01:41:01;59.22;50.63;66.57;;
64393;Laerm;50712;49.506;10.400;2023-08-01T01:41:31;59.74;53.27;65.55;;
64393;Laerm;50712;49.506;10.400;2023-08-01T01:42:01;57.51;50.61;66.12;;
64393;Laerm;50712;49.506;10.400;2023-08-01T01:42:32;57.41;50.18;62.07;;
64393;Laerm;50712;49.506;10.400;2023-08-01T01:43:02;55.84;49.93;62.23;;
64393;Laerm;50712;49.506;10.400;2023-08-01T01:43:33;52.42;48.92;59.49;;
64393;Laerm;50712;49.506;10.400;2023-08-01T01:44:03;53.09;49.69;58.76;;
64393;Laerm;50712;49.506;10.400;2023-08-01T01:44:34;52.72;49.81;56.70;;
64393;Laerm;50712;49.506;10.400;2023-08-01T01:45:05;55.88;50.17;63.75;;
64393;Laerm;50712;49.506;10.400;2023-08-01T01:45:35;57.71;50.21;64.13;;
64393;Laerm;50712;49.506;10.400;2023-08-01T01:46:05;54.46;50.10;61.32;;
64393;Laerm;50712;49.506;10.400;2023-08-01T01:46:36;54.19;50.66;59.42;;
64393;Laerm;50712;49.506;10.400;2023-08-01T01:47:06;55.24;50.67;61.18;;
64393;Laerm;50712;49.506;10.400;2023-08-01T01:47:36;55.64;48.64;62.33;;
64393;Laerm;50712;49.506;10.400;2023-08-01T01:48:07;56.27;48.63;63.37;;
64393;Laerm;50712;49.506;10.400;2023-08-01T01:48:37;55.71;50.56;61.91;;
64393;Laerm;50712;49.506;10.400;2023-08-01T01:49:08;56.11;51.30;62.61;;
64393;Laerm;50712;49.506;10.400;2023-08-01T01:49:38;55.26;50.73;63.02;;
64393;Laerm;50712;49.506;10.400;2023-08-01T01:50:09;57.62;50.69;64.12;;
64393;Laerm;50712;49.506;10.400;2023-08-01T01:50:39;57.85;52.84;64.31;;
64393;Laerm;50712;49.506;10.400;2023-08-01T01:51:40;59.59;52.19;65.53;;
64393;Laerm;50712;49.506;10.400;2023-08-01T01:52:40;61.35;53.79;66.46;;
64393;Laerm;50712;49.506;10.400;2023-08-01T01:53:11;60.51;52.18;65.43;;
64393;Laerm;50712;49.506;10.400;2023-08-01T01:53:42;58.04;51.54;65.51;;
64393;Laerm;50712;49.506;10.400;2023-08-01T01:54:12;56.80;52.49;61.11;;
64393;Laerm;50712;49.506;10.400;2023-08-01T01:54:42;58.28;51.63;70.91;;
64393;Laerm;50712;49.506;10.400;2023-08-01T01:55:13;55.75;50.53;60.41;;
64393;Laerm;50712;49.506;10.400;2023-08-01T01:55:44;56.87;52.07;63.17;;
64393;Laerm;50712;49.506;10.400;2023-08-01T01:56:15;57.42;51.49;63.42;;
64393;Laerm;50712;49.506;10.400;2023-08-01T01:56:45;60.83;53.44;69.95;;
64393;Laerm;50712;49.506;10.400;2023-08-01T01:57:16;60.63;53.77;71.32;;
64393;Laerm;50712;49.506;10.400;2023-08-01T01:57:46;57.09;51.25;61.09;;
64393;Laerm;50712;49.506;10.400;2023-08-01T01:58:16;60.09;55.31;64.52;;
64393;Laerm;50712;49.506;10.400;2023-08-01T01:58:47;59.91;52.59;64.93;;
64393;Laerm;50712;49.506;10.400;2023-08-01T01:59:17;57.29;52.52;63.70;;
64393;Laerm;50712;49.506;10.400;2023-08-01T01:59:48;60.31;51.85;68.54;;
64393;Laerm;50712;49.506;10.400;2023-08-01T02:00:18;64.82;53.46;69.94;;
64393;Laerm;50712;49.506;10.400;2023-08-01T02:00:49;64.40;51.17;76.32;;
64393;Laerm;50712;49.506;10.400;2023-08-01T02:01:19;59.45;51.39;71.27;;
64393;Laerm;50712;49.506;10.400;2023-08-01T02:01:49;56.44;50.69;62.31;;
64393;Laerm;50712;49.506;10.400;2023-08-01T02:02:50;60.10;51.15;68.66;;
64393;Laerm;50712;49.506;10.400;2023-08-01T02:03:20;59.72;51.66;66.58;;
64393;Laerm;50712;49.506;10.400;2023-08-01T02:03:51;58.32;50.86;70.16;;
64393;Laerm;50712;49.506;10.400;2023-08-01T02:04:22;55.20;50.86;62.02;;
64393;Laerm;50712;49.506;10.400;2023-08-01T02:04:52;55.10;50.53;64.89;;
64393;Laerm;50712;49.506;10.400;2023-08-01T02:05:23;62.84;50.20;67.39;;
64393;Laerm;50712;49.506;10.400;2023-08-01T02:05:54;62.44;51.37;67.63;;
64393;Laerm;50712;49.506;10.400;2023-08-01T02:06:24;63.47;54.05;67.77;;
64393;Laerm;50712;49.506;10.400;2023-08-01T02:06:55;64.14;54.85;68.02;;
64393;Laerm;50712;49.506;10.400;2023-08-01T02:07:25;61.31;52.04;67.02;;
64393;Laerm;50712;49.506;10.400;2023-08-01T02:07:56;59.74;52.44;65.00;;
64393;Laerm;50712;49.506;10.400;2023-08-01T02:08:26;62.48;56.17;66.47;;
64393;Laerm;50712;49.506;10.400;2023-08-01T02:08:56;62.28;53.18;68.23;;
64393;Laerm;50712;49.506;10.400;2023-08-01T02:09:31;62.76;50.73;69.54;;
64393;Laerm;50712;49.506;10.400;2023-08-01T02:10:35;53.48;49.67;60.21;;
64393;Laerm;50712;49.506;10.400;2023-08-01T02:11:06;56.25;50.22;60.49;;
64393;Laerm;50712;49.506;10.400;2023-08-01T02:11:36;58.54;55.16;61.34;;
64393;Laerm;50712;49.506;10.400;2023-08-01T02:12:07;57.36;53.22;61.83;;
64393;Laerm;50712;49.506;10.400;2023-08-01T02:12:39;63.17;53.79;69.24;;
64393;Laerm;50712;49.506;10.400;2023-08-01T02:13:10;63.53;54.58;68.11;;
64393;Laerm;50712;49.506;10.400;2023-08-01T02:13:40;61.54;54.53;67.09;;
64393;Laerm;50712;49.506;10.400;2023-08-01T02:14:10;67.99;53.45;71.14;;
64393;Laerm;50712;49.506;10.400;2023-08-01T02:14:41;63.56;54.75;69.14;;
64393;Laerm;50712;49.506;10.400;2023-08-01T02:15:11;60.43;52.88;65.75;;
64393;Laerm;50712;49.506;10.400;2023-08-01T02:15:42;60.43;52.88;65.75;;
64393;Laerm;50712;49.506;10.400;2023-08-01T02:16:13;62.03;55.70;74.38;;
64393;Laerm;50712;49.506;10.400;2023-08-01T02:16:43;62.41;56.13;72.41;;
64393;Laerm;50712;49.506;10.400;2023-08-01T02:17:14;61.13;52.68;67.32;;
64393;Laerm;50712;49.506;10.400;2023-08-01T02:17:45;58.31;51.69;66.56;;
64393;Laerm;50712;49.506;10.400;2023-08-01T02:18:15;58.11;53.34;62.83;;
64393;Laerm;50712;49.506;10.400;2023-08-01T02:18:45;57.52;53.67;63.90;;
64393;Laerm;50712;49.506;10.400;2023-08-01T02:19:16;56.02;51.36;61.51;;
64393;Laerm;50712;49.506;10.400;2023-08-01T02:19:47;60.62;51.74;68.81;;
64393;Laerm;50712;49.506;10.400;2023-08-01T02:20:17;55.56;50.79;62.68;;
64393;Laerm;50712;49.506;10.400;2023-08-01T02:20:47;69.33;52.23;75.67;;
64393;Laerm;50712;49.506;10.400;2023-08-01T02:21:18;57.26;50.26;69.76;;
64393;Laerm;50712;49.506;10.400;2023-08-01T02:21:48;60.46;53.46;66.85;;
64393;Laerm;50712;49.506;10.400;2023-08-01T02:22:19;63.85;55.74;72.30;;
64393;Laerm;50712;49.506;10.400;2023-08-01T02:22:50;62.81;57.35;68.29;;
64393;Laerm;50712;49.506;10.400;2023-08-01T02:23:20;63.46;53.34;74.92;;
64393;Laerm;50712;49.506;10.400;2023-08-01T02:23:51;59.11;52.43;69.29;;
64393;Laerm;50712;49.506;10.400;2023-08-01T02:24:21;59.45;52.72;72.36;;
64393;Laerm;50712;49.506;10.400;2023-08-01T02:24:51;58.93;51.46;67.21;;
64393;Laerm;50712;49.506;10.400;2023-08-01T02:25:22;61.38;53.36;70.54;;
64393;Laerm;50712;49.506;10.400;2023-08-01T02:25:52;55.82;52.10;67.30;;
64393;Laerm;50712;49.506;10.400;2023-08-01T02:26:23;64.36;50.86;76.52;;
64393;Laerm;50712;49.506;10.400;2023-08-01T02:26:54;59.10;51.06;71.11;;
64393;Laerm;50712;49.506;10.400;2023-08-01T02:27:25;58.15;52.28;74.16;;
64393;Laerm;50712;49.506;10.400;2023-08-01T02:27:55;67.53;53.70;74.01;;
64393;Laerm;50712;49.506;10.400;2023-08-01T02:28:25;69.18;53.37;77.87;;
64393;Laerm;50712;49.506;10.400;2023-08-01T02:28:56;67.67;52.66;74.58;;
64393;Laerm;50712;49.506;10.400;2023-08-01T02:29:27;68.75;60.54;72.91;;
64393;Laerm;50712;49.506;10.400;2023-08-01T02:29:57;66.21;57.87;70.78;;
64393;Laerm;50712;49.506;10.400;2023-08-01T02:30:27;67.22;54.56;72.81;;
64393;Laerm;50712;49.506;10.400;2023-08-01T02:31:29;71.03;56.21;75.50;;
64393;Laerm;50712;49.506;10.400;2023-08-01T02:31:59;64.60;54.02;71.49;;
64393;Laerm;50712;49.506;10.400;2023-08-01T02:32:30;61.48;49.35;69.24;;
64393;Laerm;50712;49.506;10.400;2023-08-01T02:33:02;57.96;49.82;69.77;;
64393;Laerm;50712;49.506;10.400;2023-08-01T02:33:33;55.01;48.06;62.88;;
64393;Laerm;50712;49.506;10.400;2023-08-01T02:34:05;58.28;50.69;63.97;;
64393;Laerm;50712;49.506;10.400;2023-08-01T02:34:35;56.75;50.06;65.76;;
64393;Laerm;50712;49.506;10.400;2023-08-01T02:35:06;55.27;49.21;65.67;;
64393;Laerm;50712;49.506;10.400;2023-08-01T02:35:37;55.60;48.74;61.41;;
64393;Laerm;50712;49.506;10.400;2023-08-01T02:36:07;56.23;51.45;65.36;;
64393;Laerm;50712;49.506;10.400;2023-08-01T02:36:38;56.85;51.76;70.42;;
64393;Laerm;50712;49.506;10.400;2023-08-01T02:37:10;54.55;49.92;63.00;;
64393;Laerm;50712;49.506;10.400;2023-08-01T02:37:40;56.69;52.23;62.81;;
64393;Laerm;50712;49.506;10.400;2023-08-01T02:38:11;55.15;49.09;69.84;;
64393;Laerm;50712;49.506;10.400;2023-08-01T02:38:41;54.85;49.78;62.64;;
64393;Laerm;50712;49.506;10.400;2023-08-01T02:39:11;54.69;51.77;61.63;;
64393;Laerm;50712;49.506;10.400;2023-08-01T02:39:42;54.80;49.83;64.59;;
64393;Laerm;50712;49.506;10.400;2023-08-01T02:40:12;63.74;51.10;70.95;;
64393;Laerm;50712;49.506;10.400;2023-08-01T02:40:43;56.12;50.49;61.09;;
64393;Laerm;50712;49.506;10.400;2023-08-01T02:41:13;59.57;49.40;68.97;;
64393;Laerm;50712;49.506;10.400;2023-08-01T02:41:43;64.26;50.47;72.08;;
64393;Laerm;50712;49.506;10.400;2023-08-01T02:42:14;63.94;53.00;71.84;;
64393;Laerm;50712;49.506;10.400;2023-08-01T02:42:44;60.80;52.94;66.03;;
64393;Laerm;50712;49.506;10.400;2023-08-01T02:43:14;55.10;48.85;60.81;;
64393;Laerm;50712;49.506;10.400;2023-08-01T02:43:45;51.68;48.28;61.34;;
64393;Laerm;50712;49.506;10.400;2023-08-01T02:44:16;55.64;48.39;64.07;;
64393;Laerm;50712;49.506;10.400;2023-08-01T02:44:46;55.83;48.60;64.38;;
64393;Laerm;50712;49.506;10.400;2023-08-01T02:45:17;54.51;49.85;64.07;;
64393;Laerm;50712;49.506;10.400;2023-08-01T02:45:47;56.03;51.57;61.75;;
64393;Laerm;50712;49.506;10.400;2023-08-01T02:46:17;53.06;48.60;58.48;;
64393;Laerm;50712;49.506;10.400;2023-08-01T02:46:48;51.97;48.70;62.31;;
64393;Laerm;50712;49.506;10.400;2023-08-01T02:47:18;54.06;47.62;65.59;;
64393;Laerm;50712;49.506;10.400;2023-08-01T02:47:48;58.08;49.17;62.45;;
64393;Laerm;50712;49.506;10.400;2023-08-01T02:48:19;58.91;50.92;64.11;;
64393;Laerm;50712;49.506;10.400;2023-08-01T02:48:50;56.35;51.89;63.50;;
64393;Laerm;50712;49.506;10.400;2023-08-01T02:49:21;58.36;52.99;64.16;;
64393;Laerm;50712;49.506;10.400;2023-08-01T02:49:51;56.62;48.36;61.21;;
64393;Laerm;50712;49.506;10.400;2023-08-01T02:50:22;57.34;48.92;62.15;;
64393;Laerm;50712;49.506;10.400;2023-08-01T02:50:52;53.25;49.11;61.82;;
64393;Laerm;50712;49.506;10.400;2023-08-01T02:51:22;57.05;49.41;71.44;;
64393;Laerm;50712;49.506;10.400;2023-08-01T02:51:53;59.07;49.54;68.46;;
64393;Laerm;50712;49.506;10.400;2023-08-01T02:52:23;58.15;50.14;67.05;;
64393;Laerm;50712;49.506;10.400;2023-08-01T02:52:53;60.85;50.18;69.78;;
64393;Laerm;50712;49.506;10.400;2023-08-01T02:53:24;61.77;52.05;70.93;;
64393;Laerm;50712;49.506;10.400;2023-08-01T02:53:54;57.75;51.89;62.14;;
64393;Laerm;50712;49.506;10.400;2023-08-01T02:54:25;57.08;50.98;62.91;;
64393;Laerm;50712;49.506;10.400;2023-08-01T02:54:55;60.77;50.66;67.33;;